createdAt,value
2022-09-21T13:42:34.859Z,15.80
2022-09-21T13:45:42.132Z,16.20
2022-09-21T13:48:29.370Z,16.70
2022-09-21T13:50:57.915Z,16.50
2022-09-21T13:53:30.846Z,16.70
2022-09-21T13:56:08.686Z,16.60
2022-09-21T13:58:42.420Z,16.60
2022-09-21T14:01:45.786Z,16.90
2022-09-21T14:04:28.250Z,16.30
2022-09-21T14:06:56.741Z,16.40
2022-09-21T14:09:23.267Z,16.50
2022-09-21T14:11:59.062Z,16.90
2022-09-21T14:14:37.185Z,16.90
2022-09-21T14:17:36.744Z,17.00
2022-09-21T14:20:05.844Z,16.90
2022-09-21T14:22:34.271Z,16.80
2022-09-21T14:25:28.181Z,16.70
2022-09-21T14:28:00.451Z,16.60
2022-09-21T14:30:32.053Z,16.60
2022-09-21T14:33:02.097Z,16.70
2022-09-21T14:35:34.019Z,16.80
2022-09-21T14:38:05.282Z,16.30
2022-09-21T14:40:38.999Z,16.30
2022-09-21T14:43:15.487Z,16.10
2022-09-21T14:46:14.093Z,16.10
2022-09-21T14:48:50.174Z,16.10
2022-09-21T14:51:41.881Z,16.20
2022-09-21T15:02:23.857Z,16.10
2022-09-21T15:11:06.531Z,16.20
2022-09-21T15:21:29.166Z,16.20
2022-09-21T15:26:29.129Z,16.00
2022-09-21T15:29:09.705Z,16.00
2022-09-21T15:36:40.643Z,16.20
2022-09-21T15:39:29.809Z,16.10
2022-09-21T15:42:17.724Z,16.10
2022-09-21T15:49:46.706Z,15.90
2022-09-21T15:52:31.759Z,15.90
2022-09-21T15:55:02.730Z,15.80
2022-09-21T15:57:39.246Z,15.70
2022-09-21T16:00:15.372Z,15.60
2022-09-21T16:02:50.644Z,15.40
2022-09-21T16:05:20.936Z,15.30
2022-09-21T16:07:47.612Z,15.20
2022-09-21T16:10:32.977Z,15.00
2022-09-21T16:13:24.300Z,15.00
2022-09-21T16:16:02.329Z,15.10
2022-09-21T16:18:41.196Z,15.00
2022-09-21T16:21:16.186Z,14.90
2022-09-21T16:23:43.113Z,14.80
2022-09-21T16:26:31.558Z,14.70
2022-09-21T16:29:19.374Z,14.70
2022-09-21T16:31:50.153Z,14.70
2022-09-21T16:34:17.593Z,14.70
2022-09-21T16:36:45.389Z,14.50
2022-09-21T16:39:15.542Z,14.50
2022-09-21T16:41:47.266Z,14.50
2022-09-21T16:44:20.513Z,14.40
2022-09-21T16:46:52.592Z,14.40
2022-09-21T16:49:21.633Z,14.20
2022-09-21T16:51:49.619Z,14.10
2022-09-21T16:54:18.016Z,14.00
2022-09-21T16:56:46.297Z,14.00
2022-09-21T16:59:16.226Z,13.90
2022-09-21T17:01:43.605Z,13.90
2022-09-21T17:04:13.335Z,13.70
2022-09-21T17:06:40.444Z,13.80
2022-09-21T17:09:29.614Z,13.80
2022-09-21T17:11:59.232Z,13.80
2022-09-21T17:14:25.844Z,13.80
2022-09-21T17:16:56.177Z,13.70
2022-09-21T17:19:22.860Z,13.50
2022-09-21T17:21:49.752Z,13.40
2022-09-21T17:24:33.080Z,13.30
2022-09-21T17:27:03.596Z,13.10
2022-09-21T17:29:31.069Z,12.80
2022-09-21T17:31:58.631Z,12.90
2022-09-21T17:34:27.283Z,12.90
2022-09-21T17:36:55.119Z,12.90
2022-09-21T17:39:23.400Z,12.80
2022-09-21T17:41:58.039Z,12.80
2022-09-21T17:44:55.021Z,12.70
2022-09-21T17:47:29.379Z,12.60
2022-09-21T17:50:02.579Z,12.60
2022-09-21T17:52:47.854Z,12.60
2022-09-21T17:55:14.627Z,12.20
2022-09-21T18:21:04.466Z,10.80
2022-09-21T18:23:49.964Z,10.50
2022-09-21T18:26:17.513Z,10.30
2022-09-21T18:28:46.505Z,10.10
2022-09-21T18:31:42.818Z,10.00
2022-09-21T18:34:24.650Z,9.90
2022-09-21T18:37:04.536Z,9.80
2022-09-21T18:39:54.506Z,9.70
2022-09-21T18:42:39.413Z,9.60
2022-09-21T18:45:15.755Z,9.50
2022-09-21T18:47:51.012Z,9.50
2022-09-21T18:51:02.308Z,9.40
2022-09-21T18:53:41.142Z,9.30
2022-09-21T18:56:08.425Z,9.20
2022-09-21T18:58:35.931Z,9.20
2022-09-21T19:01:04.006Z,9.10
2022-09-21T19:03:31.134Z,9.10
2022-09-21T19:06:19.301Z,9.00
2022-09-21T19:09:17.865Z,8.90
2022-09-21T19:11:56.882Z,8.80
2022-09-21T19:14:56.155Z,8.80
2022-09-21T19:17:55.983Z,8.70
2022-09-21T19:20:49.700Z,8.70
2022-09-21T19:23:39.353Z,8.80
2022-09-21T19:26:29.502Z,8.90
2022-09-21T19:58:08.918Z,8.20
2022-09-21T20:00:37.384Z,8.10
2022-09-21T20:03:21.633Z,7.90
2022-09-21T20:11:46.023Z,7.90
2022-09-21T20:14:22.697Z,7.90
2022-09-21T20:16:56.841Z,7.80
2022-09-21T20:19:26.544Z,7.80
2022-09-21T20:22:04.162Z,7.90
2022-09-21T20:24:46.466Z,7.80
